createdAt,value
2023-01-05T00:00:00.203Z,14.93
2023-01-05T00:02:29.520Z,15.90
2023-01-05T00:04:57.816Z,14.65
2023-01-05T00:07:27.873Z,15.43
2023-01-05T00:09:55.817Z,15.70
2023-01-05T00:12:42.133Z,15.15
2023-01-05T00:15:31.063Z,15.32
2023-01-05T00:18:18.540Z,14.35
2023-01-05T00:21:04.943Z,14.00
2023-01-05T00:23:32.947Z,14.63
2023-01-05T00:26:00.865Z,14.30
2023-01-05T00:28:30.409Z,13.50
2023-01-05T00:30:58.427Z,12.80
2023-01-05T00:33:31.772Z,12.90
2023-01-05T00:36:01.305Z,12.65
2023-01-05T00:38:29.242Z,11.75
2023-01-05T00:40:57.585Z,9.63
2023-01-05T00:43:28.075Z,9.10
2023-01-05T00:45:56.010Z,8.05
2023-01-05T00:48:23.766Z,8.48
2023-01-05T00:50:51.804Z,7.88
2023-01-05T00:53:20.728Z,8.93
2023-01-05T00:56:01.385Z,7.88
2023-01-05T00:58:31.479Z,8.35
2023-01-05T01:01:00.340Z,8.52
2023-01-05T01:03:28.429Z,7.93
2023-01-05T01:06:00.383Z,6.75
2023-01-05T01:08:30.520Z,7.80
2023-01-05T01:11:04.488Z,7.50
2023-01-05T01:13:32.786Z,7.57
2023-01-05T01:16:10.758Z,7.57
2023-01-05T01:18:38.968Z,6.70
2023-01-05T01:21:12.854Z,6.55
2023-01-05T01:23:43.229Z,6.50
2023-01-05T01:26:13.109Z,6.63
2023-01-05T01:28:47.005Z,5.85
2023-01-05T01:31:19.681Z,5.93
2023-01-05T01:33:47.723Z,5.85
2023-01-05T01:36:16.452Z,6.45
2023-01-05T01:38:44.335Z,8.77
2023-01-05T01:41:14.487Z,12.38
2023-01-05T01:43:47.768Z,14.50
2023-01-05T01:46:18.472Z,13.57
2023-01-05T01:48:53.712Z,11.98
2023-01-05T01:51:39.181Z,8.50
2023-01-05T01:54:10.628Z,9.68
2023-01-05T01:56:42.748Z,8.73
2023-01-05T01:59:10.755Z,7.15
2023-01-05T02:01:39.459Z,7.18
2023-01-05T02:04:11.132Z,6.95
2023-01-05T02:06:39.230Z,5.15
2023-01-05T02:09:07.165Z,5.43
2023-01-05T02:12:07.215Z,4.65
2023-01-05T02:14:43.439Z,4.53
2023-01-05T02:17:23.833Z,4.32
2023-01-05T02:20:46.417Z,4.43
2023-01-05T02:23:26.548Z,4.63
2023-01-05T02:26:00.983Z,4.18
2023-01-05T02:28:51.114Z,4.30
2023-01-05T02:31:21.812Z,4.03
2023-01-05T02:33:56.356Z,3.90
2023-01-05T02:36:43.522Z,4.60
2023-01-05T02:39:19.733Z,4.70
2023-01-05T02:42:13.292Z,4.03
2023-01-05T02:44:42.503Z,3.88
2023-01-05T02:47:25.657Z,4.00
2023-01-05T02:50:03.294Z,3.75
2023-01-05T02:52:47.708Z,3.60
2023-01-05T02:55:19.898Z,4.40
2023-01-05T02:58:06.508Z,4.13
2023-01-05T03:00:53.374Z,4.35
2023-01-05T03:03:27.543Z,4.60
2023-01-05T03:06:03.304Z,4.20
2023-01-05T03:08:33.095Z,3.92
2023-01-05T03:11:29.079Z,3.97
2023-01-05T03:14:06.875Z,3.85
2023-01-05T03:16:36.778Z,4.15
2023-01-05T03:19:31.296Z,4.55
2023-01-05T03:22:20.490Z,4.15
2023-01-05T03:25:08.604Z,3.85
2023-01-05T03:27:58.767Z,4.47
2023-01-05T03:30:52.507Z,4.45
2023-01-05T03:34:15.749Z,3.97
2023-01-05T03:36:52.471Z,4.22
2023-01-05T03:39:20.606Z,4.47
2023-01-05T03:41:49.060Z,5.07
2023-01-05T03:44:17.098Z,4.68
2023-01-05T03:46:47.379Z,6.35
2023-01-05T03:49:17.872Z,5.03
2023-01-05T03:51:46.198Z,3.95
2023-01-05T03:54:14.873Z,5.60
2023-01-05T03:56:46.045Z,4.63
2023-01-05T03:59:14.983Z,4.57
2023-01-05T04:01:44.234Z,4.72
2023-01-05T04:04:14.873Z,4.45
2023-01-05T04:06:42.712Z,4.60
2023-01-05T04:09:12.481Z,4.40
2023-01-05T04:11:42.704Z,4.45
2023-01-05T04:14:10.548Z,3.97
2023-01-05T04:16:40.529Z,3.72
2023-01-05T04:19:20.102Z,4.57
2023-01-05T04:21:52.175Z,4.63
2023-01-05T04:24:21.593Z,4.25
2023-01-05T04:26:49.437Z,3.83
2023-01-05T04:29:19.952Z,4.00
2023-01-05T04:31:50.979Z,4.40
2023-01-05T04:34:21.137Z,3.60
2023-01-05T04:36:51.220Z,3.17
2023-01-05T04:39:21.846Z,3.72
2023-01-05T04:41:50.800Z,3.75
2023-01-05T04:44:20.629Z,4.10
2023-01-05T04:46:49.975Z,5.00
2023-01-05T04:49:19.199Z,3.70
2023-01-05T04:51:50.530Z,3.33
2023-01-05T04:54:21.665Z,3.40
2023-01-05T04:56:49.787Z,3.75
2023-01-05T04:59:18.160Z,3.20
2023-01-05T05:01:49.945Z,3.72
2023-01-05T05:04:17.904Z,4.13
2023-01-05T05:06:47.255Z,4.28
2023-01-05T05:09:18.065Z,3.90
2023-01-05T05:11:46.779Z,3.40
2023-01-05T05:14:15.559Z,3.95
2023-01-05T05:16:44.646Z,3.60
2023-01-05T05:19:12.945Z,3.67
2023-01-05T05:21:40.767Z,3.80
2023-01-05T05:24:08.984Z,3.50
2023-01-05T05:26:41.174Z,3.55
2023-01-05T05:29:09.683Z,6.55
2023-01-05T05:31:37.790Z,7.35
2023-01-05T05:34:05.633Z,4.45
2023-01-05T05:36:36.312Z,3.20
2023-01-05T05:39:04.336Z,3.30
2023-01-05T05:41:32.131Z,3.33
2023-01-05T05:44:01.156Z,3.15
2023-01-05T05:46:29.593Z,3.55
2023-01-05T05:48:57.810Z,3.55
2023-01-05T05:51:25.903Z,3.08
2023-01-05T05:53:54.122Z,3.05
2023-01-05T05:56:21.937Z,3.08
2023-01-05T05:58:53.596Z,3.38
2023-01-05T06:01:23.982Z,3.03
2023-01-05T06:03:52.210Z,2.70
2023-01-05T06:06:20.231Z,3.45
2023-01-05T06:08:48.107Z,3.20
2023-01-05T06:11:16.091Z,3.42
2023-01-05T06:13:44.092Z,3.97
2023-01-05T06:16:11.947Z,3.70
2023-01-05T06:18:40.294Z,3.72
2023-01-05T06:21:13.043Z,5.30
2023-01-05T06:23:41.743Z,4.13
2023-01-05T06:26:10.185Z,4.85
2023-01-05T06:28:38.631Z,4.47
2023-01-05T06:31:06.682Z,4.75
2023-01-05T06:33:34.761Z,4.63
2023-01-05T06:36:03.788Z,5.85
2023-01-05T06:39:09.957Z,4.47
2023-01-05T06:41:38.670Z,3.95
2023-01-05T06:44:06.980Z,5.22
2023-01-05T06:46:34.852Z,4.97
2023-01-05T06:49:02.969Z,4.80
2023-01-05T06:51:31.785Z,4.88
2023-01-05T06:54:00.087Z,6.18
2023-01-05T06:56:28.507Z,5.35
2023-01-05T06:58:56.575Z,5.68
2023-01-05T07:01:27.556Z,5.00
2023-01-05T07:03:55.701Z,4.18
2023-01-05T11:30:27.998Z,11.93
2023-01-05T11:33:03.143Z,12.10
2023-01-05T11:35:42.871Z,12.70
2023-01-05T11:38:42.136Z,13.25
2023-01-05T11:46:07.486Z,13.10
2023-01-05T11:49:43.476Z,13.45
2023-01-05T11:52:36.807Z,12.25
2023-01-05T11:55:43.507Z,12.50
2023-01-05T11:58:44.923Z,13.00
2023-01-05T12:03:03.247Z,13.25
2023-01-05T12:06:23.309Z,12.75
2023-01-05T12:08:58.956Z,12.40
2023-01-05T12:11:31.011Z,12.32
2023-01-05T12:14:23.601Z,12.57
2023-01-05T12:16:56.722Z,13.75
2023-01-05T12:20:08.616Z,15.05
2023-01-05T12:27:47.953Z,12.98
2023-01-05T12:34:13.296Z,14.70
2023-01-05T12:37:07.912Z,13.30
2023-01-05T12:39:56.326Z,14.63
2023-01-05T12:43:11.116Z,13.50
2023-01-05T12:45:42.743Z,13.65
2023-01-05T12:48:30.799Z,14.43
2023-01-05T12:51:52.422Z,14.60
2023-01-05T12:54:42.790Z,13.75
2023-01-05T12:57:19.640Z,13.27
2023-01-05T13:00:04.761Z,14.70
2023-01-05T13:02:44.638Z,13.80
2023-01-05T13:05:29.445Z,14.85
2023-01-05T13:08:04.571Z,15.80
2023-01-05T13:10:59.822Z,13.93
2023-01-05T13:13:37.939Z,13.93
2023-01-05T13:16:27.896Z,16.02
2023-01-05T13:19:24.161Z,23.90
2023-01-05T13:21:54.003Z,18.85
2023-01-05T13:25:01.775Z,16.40
2023-01-05T13:30:05.610Z,13.95
2023-01-05T13:33:03.493Z,14.32
2023-01-05T13:36:30.580Z,12.55
2023-01-05T13:39:17.184Z,12.65
2023-01-05T13:41:47.948Z,13.20
2023-01-05T13:44:43.907Z,13.00
2023-01-05T13:47:45.183Z,13.23
2023-01-05T13:50:51.524Z,12.20
2023-01-05T13:53:43.177Z,10.20
2023-01-05T13:56:28.210Z,12.40
2023-01-05T13:58:59.952Z,11.02
2023-01-05T14:01:39.730Z,10.45
2023-01-05T14:04:25.976Z,9.90
2023-01-05T14:06:58.960Z,10.95
2023-01-05T14:09:37.846Z,10.18
2023-01-05T14:12:09.366Z,10.52
2023-01-05T14:15:00.197Z,11.02
2023-01-05T14:17:55.900Z,11.35
2023-01-05T14:20:51.819Z,12.05
2023-01-05T14:23:26.792Z,11.50
2023-01-05T14:27:32.622Z,11.48
2023-01-05T14:30:05.793Z,10.60
2023-01-05T14:32:39.616Z,11.55
2023-01-05T14:35:24.125Z,12.45
2023-01-05T14:38:24.025Z,12.07
2023-01-05T14:40:56.428Z,12.73
2023-01-05T14:43:58.512Z,11.35
2023-01-05T14:46:47.314Z,11.13
2023-01-05T14:49:32.173Z,10.63
2023-01-05T14:53:01.013Z,11.45
2023-01-05T14:57:07.411Z,10.05
2023-01-05T14:59:47.791Z,11.13
2023-01-05T15:02:24.162Z,12.13
2023-01-05T15:04:55.294Z,11.13
2023-01-05T15:08:49.847Z,11.23
2023-01-05T15:11:51.952Z,11.35
2023-01-05T15:14:38.510Z,10.90
2023-01-05T15:17:36.260Z,12.00
2023-01-05T15:20:23.268Z,11.70
2023-01-05T15:24:01.701Z,11.43
2023-01-05T15:26:51.430Z,11.80
2023-01-05T15:29:47.867Z,11.13
2023-01-05T15:32:25.769Z,11.32
2023-01-05T15:35:30.522Z,11.20
2023-01-05T15:38:26.319Z,12.35
2023-01-05T15:41:05.507Z,13.57
2023-01-05T15:43:39.333Z,12.50
2023-01-05T15:46:18.059Z,13.93
2023-01-05T15:48:52.015Z,14.30
2023-01-05T15:51:59.596Z,11.95
2023-01-05T15:54:36.326Z,11.85
2023-01-05T15:57:20.887Z,11.18
2023-01-05T15:59:54.353Z,11.23
2023-01-05T16:02:33.480Z,15.57
2023-01-05T16:05:37.184Z,14.65
2023-01-05T16:08:16.526Z,13.70
2023-01-05T16:10:57.324Z,11.50
2023-01-05T16:13:35.969Z,11.10
2023-01-05T16:16:12.886Z,13.25
2023-01-05T16:18:52.783Z,14.90
2023-01-05T16:21:36.734Z,13.63
2023-01-05T20:08:15.033Z,17.90
2023-01-05T20:10:44.272Z,20.17
2023-01-05T20:13:12.735Z,18.98
2023-01-05T20:15:58.747Z,20.75
2023-01-05T20:18:33.633Z,19.02
2023-01-05T20:21:05.416Z,19.15
2023-01-05T20:23:42.664Z,18.30
2023-01-05T20:26:13.056Z,17.83
2023-01-05T20:28:41.387Z,17.83
2023-01-05T20:31:20.988Z,20.58
2023-01-05T20:33:52.102Z,20.50
2023-01-05T20:36:20.568Z,18.52
2023-01-05T20:38:48.647Z,19.70
2023-01-05T20:41:24.863Z,17.75
2023-01-05T20:44:05.562Z,18.40
2023-01-05T20:46:39.569Z,16.60
2023-01-05T20:49:09.725Z,17.05
2023-01-05T20:52:00.106Z,17.02
2023-01-05T20:54:29.181Z,16.15
2023-01-05T20:57:02.267Z,16.08
2023-01-05T20:59:32.259Z,16.45
2023-01-05T21:02:00.741Z,18.30
2023-01-05T21:04:29.492Z,16.95
2023-01-05T21:07:02.947Z,14.73
2023-01-05T21:09:31.307Z,15.60
2023-01-05T21:12:02.181Z,16.00
2023-01-05T21:14:30.989Z,17.10
2023-01-05T21:16:58.932Z,16.83
2023-01-05T21:19:27.401Z,14.98
2023-01-05T21:21:57.174Z,12.95
2023-01-05T21:24:26.120Z,13.95
2023-01-05T21:26:54.398Z,11.70
2023-01-05T21:29:26.167Z,11.35
2023-01-05T21:31:55.909Z,12.65
2023-01-05T21:34:24.837Z,11.90
2023-01-05T21:36:53.053Z,12.43
2023-01-05T21:39:24.753Z,12.85
2023-01-05T21:42:11.336Z,12.45
2023-01-05T21:47:08.482Z,10.82
2023-01-05T21:49:36.779Z,11.10
2023-01-05T21:52:24.493Z,11.00
2023-01-05T21:55:11.144Z,11.55
2023-01-05T21:57:39.209Z,10.65
2023-01-05T22:00:08.592Z,11.32
2023-01-05T22:02:37.754Z,10.88
2023-01-05T22:05:07.924Z,10.85
2023-01-05T22:07:35.957Z,11.57
2023-01-05T22:10:04.878Z,11.90
2023-01-05T22:12:54.985Z,12.23
2023-01-05T22:15:24.880Z,11.18
2023-01-05T22:17:53.574Z,10.35
2023-01-05T22:20:22.597Z,10.32
2023-01-05T22:22:50.507Z,9.38
2023-01-05T22:25:20.048Z,10.23
2023-01-05T22:27:49.172Z,9.20
2023-01-05T22:31:15.224Z,10.63
2023-01-05T22:33:52.755Z,10.60
2023-01-05T22:36:22.313Z,11.35
2023-01-05T22:38:53.453Z,10.75
2023-01-05T22:41:27.382Z,10.40
2023-01-05T22:44:22.596Z,10.07
2023-01-05T22:47:00.378Z,9.68
2023-01-05T22:49:59.970Z,10.23
2023-01-05T22:52:30.911Z,9.82
2023-01-05T22:55:00.643Z,14.50
2023-01-05T22:57:29.164Z,10.05
2023-01-05T23:02:48.257Z,9.27
2023-01-05T23:05:22.647Z,8.75
2023-01-05T23:08:26.305Z,9.70
2023-01-05T23:11:05.088Z,9.77
2023-01-05T23:13:33.697Z,9.25
2023-01-05T23:16:07.390Z,8.65
2023-01-05T23:18:36.099Z,8.82
2023-01-05T23:21:07.067Z,8.80
2023-01-05T23:23:37.929Z,8.13
2023-01-05T23:26:13.369Z,8.68
2023-01-05T23:28:44.078Z,8.38
2023-01-05T23:31:15.986Z,9.30
2023-01-05T23:33:45.918Z,8.85
2023-01-05T23:36:18.049Z,8.05
2023-01-05T23:39:02.115Z,9.07
2023-01-05T23:41:37.714Z,8.20
2023-01-05T23:44:25.740Z,8.10
2023-01-05T23:46:53.773Z,8.93
2023-01-05T23:52:39.786Z,7.57
2023-01-05T23:58:05.264Z,7.65
